Kwinana, Australia
Current Conditions -  °F | °C
As of 10:30 AM on Saturday 25 Oct 2014 (Local Time) from YPJT Reporting Station
Broken Clouds Broken Clouds  
Wind Chill: 70°   Ceiling: 4200
Heat Index: 70°   Visibility: 6mi
Dew Point: 52°   Wind: 15mph
Humidity: 53%   Direction: 270°W
Pressure: 30.06"   Gusts: NA
Location:  32.25°S, 115.81°E
Report Text: YPJT 250230Z AUTO 27013KT 9999 // SCT031 BKN042 21/11 Q1018
Loading
Personal Weather Stations






























Interactive Weather Map
Tropical Storm Tracking
New forecast layout! Learn more

10-Day Weather Forecast

Advertisements
Track Severe Weather on mobile